Aneityum, Vanuatu
Current Conditions -  °F | °C
As of 7:00 AM on Friday 19 Dec 2014 (Local Time) from NVVV Reporting Station
Few Clouds Few Clouds  
Wind Chill: 81°   Ceiling: Unl
Heat Index: 87°   Visibility: 6mi
Dew Point: 77°   Wind: 2mph
Humidity: 89%   Direction: NA
Pressure: 29.85"   Gusts: NA
Location:  20.23°S, 169.77°E
Report Text: NVVV 182000Z VRB02KT 9999 FEW020 27/25 Q1011 RMK NIL
Loading
Personal Weather Stations






























Interactive Weather Map New forecast layout! Learn more

10-Day Weather Forecast

Advertisements
Track Severe Weather on mobile